Parks Crossroads, North Carolina
Current Conditions -  °F | °C
As of 9:35 AM on Monday 22 Dec 2014 (Local Time) from K5W8 Reporting Station
Haze Haze  
Wind Chill: -2°   Ceiling: 500
Heat Index:   Visibility: 3mi
Dew Point:   Wind: 10mph
Humidity: 100%   Direction: 30°NNE
Pressure: 30.14"   Gusts: NA
Location:  35.6832°N, 79.6174°W
Report Text: K5W8 221435Z AUTO 03009KT 3SM BR OVC005 02/02 A3014 RMK AO2 T00200020
Loading
Personal Weather Stations






























Interactive Weather Map New forecast layout! Learn more

10-Day Weather Forecast

Advertisements
Track Severe Weather on mobile